Catharina 1 — 9H4209 — position and weather

sailwx.info

Track history (hours):
 
Tides and Currents Weather Stations Pressure Air Temp Water Temp Dewpoint Dewpoint Depression Visibility Wind Speed Wind Dir Waves Ship Positions

Catharina 1

Last reported at 2017-Nov-25 07:56 UTC. Time now 2017-Nov-25 08:01 UTC.
Position N 37°57' E 024°38'.

Length 85 m.

Type: Cargo ship. MMSI: 256686000.

Date/timePositionNaut miles runAvg speedWind from/ knotsBaromVisibWave heightAir tempDewpointWater temp
2017-Nov-25 07:56N 37°57' E 024°38'4 9.2
2017-Nov-25 07:30N 37°54' E 024°34'4 8.9
2017-Nov-25 07:01N 37°51' E 024°30'8 8.9
2017-Nov-25 06:05N 37°46' E 024°22'2 8.9
2017-Nov-25 05:53N 37°45' E 024°20'3 9.1
2017-Nov-25 05:30N 37°42' E 024°17'5 8.9
2017-Nov-25 05:00N 37°39' E 024°12'4 9.0
2017-Nov-25 04:31N 37°38' E 024°07'5 9.2
2017-Nov-25 03:56N 37°38' E 024°01'5 9.1
2017-Nov-25 03:23N 37°38' E 023°54'4 9.0
2017-Nov-25 02:59N 37°38' E 023°50'4 9.2
2017-Nov-25 02:31N 37°39' E 023°44'4 8.7
2017-Nov-25 02:00N 37°42' E 023°40'5 9.1
2017-Nov-25 01:30N 37°46' E 023°38'4 8.2
2017-Nov-25 01:01N 37°49' E 023°34'5 9.2
2017-Nov-25 00:30N 37°50' E 023°28'5 9.0
2017-Nov-25 00:00N 37°51' E 023°23'5 9.3
2017-Nov-24 23:30N 37°52' E 023°17'5 9.4
2017-Nov-24 23:00N 37°53' E 023°11'5 9.3
2017-Nov-24 22:31N 37°54' E 023°05'4 8.3
2017-Nov-24 22:01N 37°55' E 023°00'3 5.4
2017-Nov-24 21:30N 37°57' E 022°58'2 4.4
2017-Nov-24 21:00N 37°58' E 022°56'5 9.8
2017-Nov-24 20:30N 38°01' E 022°50'5 9.5
2017-Nov-24 19:59N 38°03' E 022°45'  
Track history (hours):
 
Tides and Currents Weather Stations Pressure Air Temp Water Temp Dewpoint Dewpoint Depression Visibility Wind Speed Wind Dir Waves Ship Positions

Catharina 1

Last reported at 2017-Nov-25 07:56 UTC. Time now 2017-Nov-25 08:01 UTC.
Position N 37°57' E 024°38'.

Length 85 m.

Type: Cargo ship. MMSI: 256686000.

Date/timePositionNaut miles runAvg speedWind from/ knotsBaromVisibWave heightAir tempDewpointWater temp
2017-Nov-25 07:56N 37°57' E 024°38'4 9.2
2017-Nov-25 07:30N 37°54' E 024°34'4 8.9
2017-Nov-25 07:01N 37°51' E 024°30'8 8.9
2017-Nov-25 06:05N 37°46' E 024°22'2 8.9
2017-Nov-25 05:53N 37°45' E 024°20'3 9.1
2017-Nov-25 05:30N 37°42' E 024°17'5 8.9
2017-Nov-25 05:00N 37°39' E 024°12'4 9.0
2017-Nov-25 04:31N 37°38' E 024°07'5 9.2
2017-Nov-25 03:56N 37°38' E 024°01'5 9.1
2017-Nov-25 03:23N 37°38' E 023°54'4 9.0
2017-Nov-25 02:59N 37°38' E 023°50'4 9.2
2017-Nov-25 02:31N 37°39' E 023°44'4 8.7
2017-Nov-25 02:00N 37°42' E 023°40'5 9.1
2017-Nov-25 01:30N 37°46' E 023°38'4 8.2
2017-Nov-25 01:01N 37°49' E 023°34'5 9.2
2017-Nov-25 00:30N 37°50' E 023°28'5 9.0
2017-Nov-25 00:00N 37°51' E 023°23'5 9.3
2017-Nov-24 23:30N 37°52' E 023°17'5 9.4
2017-Nov-24 23:00N 37°53' E 023°11'5 9.3
2017-Nov-24 22:31N 37°54' E 023°05'4 8.3
2017-Nov-24 22:01N 37°55' E 023°00'3 5.4
2017-Nov-24 21:30N 37°57' E 022°58'2 4.4
2017-Nov-24 21:00N 37°58' E 022°56'5 9.8
2017-Nov-24 20:30N 38°01' E 022°50'5 9.5
2017-Nov-24 19:59N 38°03' E 022°45'  

Dump ship's entire track history